createdAt,value
2023-05-08T00:02:25.685Z,99874.41
2023-05-08T00:07:28.736Z,99880.69
2023-05-08T00:12:31.749Z,99878.31
2023-05-08T00:17:36.212Z,99882.38
2023-05-08T00:22:39.491Z,99876.94
2023-05-08T00:27:42.805Z,99870.78
2023-05-08T00:32:47.495Z,99875.03
2023-05-08T00:37:50.614Z,99879.63
2023-05-08T00:42:54.028Z,99876.88
2023-05-08T00:47:58.680Z,99885.00
2023-05-08T00:53:04.129Z,99888.09
2023-05-08T00:58:07.990Z,99883.81
2023-05-08T01:03:13.473Z,99878.16
2023-05-08T01:08:16.854Z,99884.31
2023-05-08T01:13:36.139Z,99885.16
2023-05-08T01:18:46.741Z,99875.59
2023-05-08T01:24:20.246Z,99886.47
2023-05-08T01:29:44.795Z,99887.13
2023-05-08T01:34:56.998Z,99887.34
2023-05-08T01:40:08.992Z,99891.06
2023-05-08T01:45:17.759Z,99888.81
2023-05-08T01:50:31.067Z,99897.47
2023-05-08T01:55:37.635Z,99904.22
2023-05-08T02:00:42.400Z,99912.97
2023-05-08T02:05:50.029Z,99921.44
2023-05-08T02:10:55.154Z,99926.94
2023-05-08T02:16:00.502Z,99922.00
2023-05-08T02:21:06.346Z,99925.34
2023-05-08T02:26:10.812Z,99930.53
2023-05-08T02:31:14.837Z,99926.59
2023-05-08T02:36:20.865Z,99932.31
2023-05-08T02:41:27.520Z,99938.53
2023-05-08T02:46:40.913Z,99948.47
2023-05-08T02:51:54.756Z,99944.91
2023-05-08T02:57:01.241Z,99946.75
2023-05-08T03:02:10.682Z,99952.19
2023-05-08T03:07:16.355Z,99947.09
2023-05-08T03:12:23.055Z,99953.53
2023-05-08T03:17:29.065Z,99946.69
2023-05-08T03:22:35.556Z,99953.44
2023-05-08T03:27:39.401Z,99960.59
2023-05-08T03:32:45.070Z,99959.66
2023-05-08T03:37:49.957Z,99969.28
2023-05-08T03:42:53.981Z,99972.28
2023-05-08T03:47:59.188Z,99977.06
2023-05-08T03:53:03.713Z,99970.28
2023-05-08T03:58:18.970Z,99970.50
2023-05-08T04:03:26.045Z,99980.38
2023-05-08T04:08:35.443Z,99986.69
2023-05-08T04:13:44.667Z,99980.06
2023-05-08T04:18:50.748Z,99986.22
2023-05-08T04:23:58.046Z,99981.44
2023-05-08T04:29:01.284Z,99989.03
2023-05-08T04:34:04.677Z,99984.88
2023-05-08T04:39:09.067Z,99996.44
2023-05-08T04:44:12.871Z,99996.69
2023-05-08T04:49:15.883Z,100001.66
2023-05-08T04:54:20.499Z,100006.25
2023-05-08T04:59:24.985Z,100008.75
2023-05-08T05:04:28.174Z,100013.66
2023-05-08T05:09:37.054Z,100027.41
2023-05-08T05:14:40.368Z,100023.69
2023-05-08T05:19:43.372Z,100035.09
2023-05-08T05:24:47.728Z,100023.72
2023-05-08T05:29:50.737Z,100040.59
2023-05-08T05:34:54.354Z,100042.75
2023-05-08T05:39:58.722Z,100052.00
2023-05-08T05:45:01.898Z,100054.44
2023-05-08T05:50:05.494Z,100053.94
2023-05-08T05:55:10.691Z,100060.25
2023-05-08T06:00:14.372Z,100056.91
2023-05-08T06:05:19.032Z,100059.78
2023-05-08T06:10:23.581Z,100058.78
2023-05-08T06:15:26.765Z,100066.47
2023-05-08T06:20:29.751Z,100069.19
2023-05-08T06:25:34.321Z,100067.53
2023-05-08T06:30:37.842Z,100080.81
2023-05-08T06:35:40.939Z,100083.75
2023-05-08T06:40:45.947Z,100084.00
2023-05-08T06:45:48.976Z,100080.41
2023-05-08T06:50:52.316Z,100094.75
2023-05-08T06:55:57.736Z,100095.50
2023-05-08T07:01:01.567Z,100090.25
2023-05-08T07:06:04.865Z,100084.47
2023-05-08T07:11:09.970Z,100078.09
2023-05-08T07:16:13.349Z,100087.25
2023-05-08T07:21:18.021Z,100088.25
2023-05-08T07:26:22.446Z,100095.16
2023-05-08T07:31:26.386Z,100091.28
2023-05-08T07:36:29.460Z,100105.00
2023-05-08T07:41:33.839Z,100097.19
2023-05-08T07:46:37.379Z,100097.06
2023-05-08T07:51:41.727Z,100097.75
2023-05-08T07:56:46.418Z,100101.69
2023-05-08T08:01:49.876Z,100107.78
2023-05-08T08:06:53.279Z,100106.13
2023-05-08T08:11:58.042Z,100103.34
2023-05-08T08:17:01.512Z,100104.56
2023-05-08T08:22:04.698Z,100106.28
2023-05-08T08:27:09.586Z,100105.19
2023-05-08T08:32:12.645Z,100101.69
2023-05-08T08:37:15.666Z,100097.41
2023-05-08T08:42:20.114Z,100104.34
2023-05-08T08:47:27.359Z,100103.06
2023-05-08T08:52:32.955Z,100092.59
2023-05-08T08:57:40.605Z,100089.72
2023-05-08T09:02:43.896Z,100093.72
2023-05-08T09:07:48.639Z,100094.56
2023-05-08T09:12:53.525Z,100099.91
2023-05-08T09:17:56.680Z,100099.13
2023-05-08T09:23:02.490Z,100099.97
2023-05-08T09:28:18.286Z,100103.09
2023-05-08T09:33:23.113Z,100095.94
2023-05-08T09:38:37.132Z,100090.28
2023-05-08T09:43:43.139Z,100105.66
2023-05-08T09:48:46.229Z,100129.03
2023-05-08T09:53:52.936Z,100129.09
2023-05-08T09:58:57.398Z,100135.78
2023-05-08T10:04:01.282Z,100115.28
2023-05-08T10:09:08.498Z,100121.75
2023-05-08T10:14:13.273Z,100108.66
2023-05-08T10:19:18.439Z,100110.34
2023-05-08T10:24:27.155Z,100114.94
2023-05-08T10:29:38.163Z,100100.22
2023-05-08T10:34:42.542Z,100097.66
2023-05-08T10:39:46.738Z,100100.34
2023-05-08T10:44:51.723Z,100089.97
2023-05-08T10:50:02.702Z,100071.88
2023-05-08T10:55:21.070Z,100071.94
2023-05-08T11:00:25.476Z,100072.63
2023-05-08T11:05:28.646Z,100067.47
2023-05-08T11:10:33.163Z,100065.88
2023-05-08T11:15:38.707Z,100067.75
2023-05-08T11:20:42.974Z,100063.25
2023-05-08T11:25:46.057Z,100054.09
2023-05-08T11:30:54.854Z,100057.09
2023-05-08T11:35:59.069Z,100049.13
2023-05-08T11:41:06.968Z,100045.81
2023-05-08T11:46:16.479Z,100055.59
2023-05-08T11:51:20.724Z,100048.31
2023-05-08T11:56:23.904Z,100055.41
2023-05-08T12:01:28.740Z,100051.69
2023-05-08T12:06:33.228Z,100055.22
2023-05-08T12:11:36.820Z,100048.31
2023-05-08T12:16:42.072Z,100042.59
2023-05-08T12:21:49.028Z,100044.41
2023-05-08T12:26:55.609Z,100042.63
2023-05-08T12:32:00.391Z,100048.31
2023-05-08T12:37:04.581Z,100048.97
2023-05-08T12:42:07.701Z,100042.41
2023-05-08T12:47:12.201Z,100051.69
2023-05-08T12:52:15.592Z,100047.31
2023-05-08T12:57:22.506Z,100037.97
2023-05-08T13:02:27.157Z,100036.97
2023-05-08T13:07:32.766Z,100036.53
2023-05-08T13:12:35.852Z,100035.75
2023-05-08T13:17:40.380Z,100040.88
2023-05-08T13:22:43.425Z,100041.06
2023-05-08T13:27:46.501Z,100029.53
2023-05-08T13:32:51.639Z,100023.38
2023-05-08T13:37:55.057Z,100022.22
2023-05-08T13:42:58.140Z,100018.66
2023-05-08T13:48:03.490Z,100020.88
2023-05-08T13:53:07.305Z,100008.91
2023-05-08T13:58:10.801Z,100008.28
2023-05-08T14:03:15.659Z,99996.22
2023-05-08T14:08:18.992Z,99995.56
2023-05-08T14:13:22.752Z,99992.50
2023-05-08T14:18:27.434Z,99985.44
2023-05-08T14:23:30.872Z,99977.47
2023-05-08T14:28:34.309Z,99973.31
2023-05-08T14:33:39.103Z,99978.69
2023-05-08T14:38:42.189Z,99980.19
2023-05-08T14:43:45.313Z,99983.84
2023-05-08T14:48:49.674Z,99975.88
2023-05-08T14:53:52.823Z,99969.69
2023-05-08T14:58:55.957Z,99958.03
2023-05-08T15:04:00.535Z,99953.25
2023-05-08T15:09:03.804Z,99955.72
2023-05-08T15:14:06.904Z,99948.56
2023-05-08T15:19:11.278Z,99947.06
2023-05-08T15:24:14.296Z,99946.72
2023-05-08T15:29:17.678Z,99940.97
2023-05-08T15:34:23.309Z,99935.78
2023-05-08T15:39:28.071Z,99936.16
2023-05-08T15:44:41.627Z,99935.19
2023-05-08T15:49:55.581Z,99933.13
2023-05-08T15:54:58.650Z,99947.22
2023-05-08T16:00:01.677Z,99942.06
2023-05-08T16:05:06.690Z,99942.69
2023-05-08T16:10:10.868Z,99947.56
2023-05-08T16:15:14.288Z,99954.13
2023-05-08T16:20:18.910Z,99954.81
2023-05-08T16:25:22.205Z,99950.31
2023-05-08T16:30:25.308Z,99949.63
2023-05-08T16:35:30.124Z,99945.66
2023-05-08T16:40:33.187Z,99931.00
2023-05-08T16:45:36.649Z,99938.41
2023-05-08T16:50:41.040Z,99929.09
2023-05-08T16:55:44.243Z,99925.63
2023-05-08T17:00:47.349Z,99922.53
2023-05-08T17:05:52.089Z,99932.09
2023-05-08T17:10:55.723Z,99922.88
2023-05-08T17:15:59.208Z,99920.31
2023-05-08T17:21:03.600Z,99924.53
2023-05-08T17:26:06.728Z,99929.22
2023-05-08T17:31:10.203Z,99932.03
2023-05-08T17:36:14.562Z,99933.91
2023-05-08T17:41:17.593Z,99935.28
2023-05-08T17:46:20.991Z,99943.22
2023-05-08T17:51:25.508Z,99939.72
2023-05-08T17:56:29.943Z,99943.63
2023-05-08T18:01:34.733Z,99958.56
2023-05-08T18:06:39.604Z,99955.63
2023-05-08T18:11:42.652Z,99949.19
2023-05-08T18:16:45.684Z,99949.72
2023-05-08T18:21:50.106Z,99958.69
2023-05-08T18:26:53.583Z,99957.22
2023-05-08T18:31:56.942Z,99952.47
2023-05-08T18:37:01.667Z,99957.00
2023-05-08T18:42:04.930Z,99958.97
2023-05-08T18:47:08.401Z,99970.47
2023-05-08T18:52:14.910Z,99979.91
2023-05-08T18:57:18.624Z,99976.66
2023-05-08T19:02:24.476Z,99977.97
2023-05-08T19:07:28.910Z,99985.31
2023-05-08T19:12:32.527Z,99980.75
2023-05-08T19:17:36.801Z,99982.81
2023-05-08T19:22:41.476Z,99976.84
2023-05-08T19:27:44.582Z,99980.81
2023-05-08T19:32:47.654Z,99988.44
2023-05-08T19:37:52.027Z,99983.69
2023-05-08T19:42:55.060Z,99984.44
2023-05-08T19:47:58.186Z,99983.25
2023-05-08T19:53:02.563Z,99969.25
2023-05-08T19:58:05.565Z,99976.97
2023-05-08T20:03:08.672Z,99979.41
2023-05-08T20:08:13.144Z,99964.88
2023-05-08T20:13:16.652Z,99971.41
2023-05-08T20:18:19.664Z,99962.69
2023-05-08T20:23:24.127Z,99976.91
2023-05-08T20:28:27.161Z,99968.19
2023-05-08T20:33:30.508Z,99979.13
2023-05-08T20:38:36.371Z,99975.72
2023-05-08T20:43:39.535Z,99971.63
2023-05-08T20:48:42.874Z,99979.50
2023-05-08T20:53:47.229Z,99988.34
2023-05-08T20:58:50.292Z,99982.56
2023-05-08T21:03:53.320Z,99985.13
2023-05-08T21:08:58.753Z,99974.00
2023-05-08T21:14:01.785Z,99977.09
2023-05-08T21:19:05.114Z,99962.75
2023-05-08T21:24:10.169Z,99961.56
2023-05-08T21:29:13.545Z,99956.25
2023-05-08T21:34:17.128Z,99963.75
2023-05-08T21:39:21.937Z,99966.53
2023-05-08T21:44:25.252Z,99964.44
2023-05-08T21:49:28.655Z,99956.94
2023-05-08T21:54:33.208Z,99954.53
2023-05-08T21:59:36.646Z,99947.41
2023-05-08T22:04:39.927Z,99953.19
2023-05-08T22:09:44.698Z,99947.19
2023-05-08T22:14:48.104Z,99941.56
2023-05-08T22:19:51.508Z,99930.66
2023-05-08T22:24:56.495Z,99926.88
2023-05-08T22:30:01.080Z,99932.00
2023-05-08T22:35:04.677Z,99916.28
2023-05-08T22:40:10.882Z,99924.16
2023-05-08T22:45:15.405Z,99914.78
2023-05-08T22:50:19.304Z,99901.81
2023-05-08T22:55:24.122Z,99901.81
2023-05-08T23:00:27.357Z,99898.72
2023-05-08T23:05:30.844Z,99894.47
2023-05-08T23:10:35.752Z,99877.06
2023-05-08T23:15:38.824Z,99879.81
2023-05-08T23:20:41.931Z,99871.94
2023-05-08T23:25:46.279Z,99872.13
2023-05-08T23:30:49.285Z,99866.66
2023-05-08T23:35:52.603Z,99870.91
2023-05-08T23:40:57.001Z,99880.47
2023-05-08T23:46:00.165Z,99885.59
2023-05-08T23:51:03.236Z,99884.41
2023-05-08T23:56:08.578Z,99884.41
